createdAt,value
2024-03-16T00:02:57.644Z,13.80
2024-03-16T00:13:00.628Z,13.70
2024-03-16T00:23:03.173Z,13.80
2024-03-16T00:33:05.704Z,13.80
2024-03-16T00:43:08.304Z,13.70
2024-03-16T00:53:10.905Z,13.50
2024-03-16T01:03:13.356Z,13.20
2024-03-16T01:13:15.896Z,12.90
2024-03-16T01:23:18.349Z,12.60
2024-03-16T01:33:20.805Z,12.40
2024-03-16T01:43:23.182Z,12.10
2024-03-16T01:53:25.642Z,11.80
2024-03-16T02:03:28.074Z,11.50
2024-03-16T02:13:30.569Z,11.20
2024-03-16T02:23:33.017Z,10.80
2024-03-16T02:33:35.756Z,10.50
2024-03-16T02:43:38.221Z,10.20
2024-03-16T02:53:40.661Z,9.90
2024-03-16T03:03:43.143Z,9.60
2024-03-16T03:13:46.673Z,9.50
2024-03-16T03:23:50.810Z,9.30
2024-03-16T03:33:53.615Z,9.20
2024-03-16T03:43:56.225Z,9.10
2024-03-16T03:53:58.657Z,8.90
2024-03-16T04:04:01.180Z,8.70
2024-03-16T04:14:03.626Z,8.50
2024-03-16T04:24:06.071Z,8.40
2024-03-16T04:34:08.854Z,8.30
2024-03-16T04:44:11.326Z,8.20
2024-03-16T04:54:13.757Z,8.10
2024-03-16T05:04:16.284Z,8.00
2024-03-16T05:14:18.861Z,7.80
2024-03-16T05:24:21.325Z,7.80
2024-03-16T05:34:23.755Z,7.70
2024-03-16T05:44:26.182Z,7.60
2024-03-16T05:54:28.765Z,7.60
2024-03-16T06:04:31.231Z,7.50
2024-03-16T06:14:33.670Z,7.40
2024-03-16T06:24:36.200Z,7.20
2024-03-16T06:34:38.645Z,7.20
2024-03-16T06:44:41.149Z,7.00
2024-03-16T06:54:45.855Z,6.90
2024-03-16T07:04:48.404Z,6.80
2024-03-16T07:14:50.883Z,6.80
2024-03-16T07:24:53.335Z,6.60
2024-03-16T07:34:55.887Z,6.50
2024-03-16T07:44:58.482Z,6.40
2024-03-16T07:55:01.004Z,6.30
2024-03-16T08:05:03.534Z,6.20
2024-03-16T08:15:06.063Z,6.20
2024-03-16T08:25:08.695Z,6.10
2024-03-16T08:35:11.411Z,6.00
2024-03-16T08:45:13.966Z,6.00
2024-03-16T08:55:16.532Z,5.90
2024-03-16T09:05:19.042Z,5.80
2024-03-16T09:15:21.439Z,5.70
2024-03-16T09:25:23.985Z,5.60
2024-03-16T09:35:26.525Z,5.60
